Time;durP1;ratioP1;P1;durP2;ratioP2;P2;SDS_P1;SDS_P2;PMS_P1;PMS_P2;Temp;Humidity;BMP_temperature;BMP_pressure;BME280_temperature;BME280_humidity;BME280_pressure;Samples;Min_cycle;Max_cycle;Signal;HPM_P1;HPM_P2
2023/04/24 00:01:01;;;;;;;16.23;15.27;;;10.70;99.90;;;;;;4994241;28;20050;-75
2023/04/24 00:03:28;;;;;;;16.27;15.43;;;10.60;99.90;;;;;;4994406;28;20042;-75
2023/04/24 00:05:56;;;;;;;15.88;14.98;;;10.50;99.90;;;;;;4998712;28;20109;-75
2023/04/24 00:08:23;;;;;;;16.20;15.40;;;10.40;99.90;;;;;;5000429;28;20141;-73
2023/04/24 00:10:51;;;;;;;15.48;14.68;;;10.40;99.90;;;;;;5016363;28;20050;-74
2023/04/24 00:13:18;;;;;;;14.80;13.90;;;10.40;99.90;;;;;;5016086;28;20054;-73
2023/04/24 00:15:45;;;;;;;16.02;15.32;;;10.20;99.90;;;;;;4995407;28;20050;-75
2023/04/24 00:18:12;;;;;;;17.48;16.65;;;10.20;99.90;;;;;;4994435;28;20060;-74
2023/04/24 00:20:39;;;;;;;17.80;16.90;;;10.20;99.90;;;;;;4993769;28;20041;-75
2023/04/24 00:23:06;;;;;;;18.85;17.85;;;10.20;99.90;;;;;;4995402;28;20071;-75
2023/04/24 00:25:32;;;;;;;17.70;16.70;;;10.30;99.90;;;;;;4993732;28;20582;-75
2023/04/24 00:27:59;;;;;;;18.08;17.10;;;10.20;99.90;;;;;;4995536;28;20045;-75
2023/04/24 00:30:26;;;;;;;18.05;17.25;;;10.30;99.90;;;;;;4991742;28;20557;-75
2023/04/24 00:32:52;;;;;;;18.08;17.08;;;10.20;99.90;;;;;;5004355;28;20288;-74
2023/04/24 00:35:19;;;;;;;17.10;16.33;;;10.20;99.90;;;;;;4994252;28;20296;-73
2023/04/24 00:37:46;;;;;;;18.20;17.23;;;10.10;99.90;;;;;;4990974;28;20315;-73
2023/04/24 00:40:13;;;;;;;17.55;16.75;;;10.00;99.90;;;;;;4974971;28;20046;-74
2023/04/24 00:42:41;;;;;;;17.35;16.52;;;9.90;99.90;;;;;;4977868;28;20396;-74
2023/04/24 00:45:08;;;;;;;17.75;16.85;;;9.90;99.90;;;;;;4994229;28;20070;-75
2023/04/24 00:47:35;;;;;;;17.70;16.80;;;9.80;99.90;;;;;;4993621;28;20038;-73
2023/04/24 00:50:05;;;;;;;17.52;16.65;;;9.70;99.90;;;;;;4996363;28;20510;-75
2023/04/24 00:52:32;;;;;;;17.13;16.33;;;9.70;99.90;;;;;;4995367;28;20096;-76
2023/04/24 00:54:59;;;;;;;17.27;16.48;;;9.70;99.90;;;;;;4995277;28;20050;-76
2023/04/24 00:57:26;;;;;;;16.95;16.15;;;9.60;99.90;;;;;;4992498;28;20034;-76
2023/04/24 00:59:53;;;;;;;17.40;16.40;;;9.60;99.90;;;;;;4993632;28;20144;-73
2023/04/24 01:02:22;;;;;;;16.65;15.80;;;9.60;99.90;;;;;;4991994;28;20412;-74
2023/04/24 01:04:52;;;;;;;16.20;15.23;;;9.50;99.90;;;;;;4994659;28;20405;-73
2023/04/24 01:07:22;;;;;;;16.60;15.73;;;9.50;99.90;;;;;;4994879;28;20072;-73
2023/04/24 01:09:51;;;;;;;16.20;15.30;;;9.50;99.90;;;;;;4993747;28;20049;-73
2023/04/24 01:12:19;;;;;;;15.70;15.00;;;9.50;99.90;;;;;;4993423;28;20125;-73
2023/04/24 01:14:46;;;;;;;16.30;15.15;;;9.50;99.90;;;;;;4993973;28;20050;-74
2023/04/24 01:17:15;;;;;;;15.93;15.23;;;9.50;99.90;;;;;;4994428;28;20319;-73
2023/04/24 01:19:44;;;;;;;16.23;15.43;;;9.50;99.90;;;;;;4975585;28;20145;-74
2023/04/24 01:22:14;;;;;;;17.17;15.98;;;9.40;99.90;;;;;;4990422;28;20129;-76
2023/04/24 01:24:41;;;;;;;16.15;15.35;;;9.50;99.90;;;;;;4991325;28;20042;-74
2023/04/24 01:27:10;;;;;;;16.60;15.80;;;9.60;99.90;;;;;;4994520;28;20046;-75
2023/04/24 01:29:37;;;;;;;17.45;16.55;;;9.60;99.90;;;;;;4991771;28;20484;-74
2023/04/24 01:32:05;;;;;;;16.85;16.05;;;9.70;99.90;;;;;;4991888;28;20045;-73
2023/04/24 01:34:32;;;;;;;17.00;16.20;;;9.70;99.90;;;;;;4992909;28;20505;-76
2023/04/24 01:36:59;;;;;;;18.75;17.25;;;9.80;99.90;;;;;;4994236;28;20156;-73
2023/04/24 01:39:28;;;;;;;17.00;16.20;;;9.80;99.90;;;;;;4995970;28;20057;-74
2023/04/24 01:41:55;;;;;;;17.38;16.48;;;9.80;99.90;;;;;;4977118;28;20240;-74
2023/04/24 01:44:22;;;;;;;17.17;16.38;;;9.80;99.90;;;;;;4993657;28;20504;-73
2023/04/24 01:46:49;;;;;;;17.80;16.90;;;9.80;99.90;;;;;;4991958;28;20128;-73
2023/04/24 01:49:16;;;;;;;17.80;16.90;;;9.80;99.90;;;;;;4994811;28;20165;-72
2023/04/24 01:51:44;;;;;;;17.83;16.92;;;9.80;99.90;;;;;;4994639;28;20038;-73
2023/04/24 01:54:11;;;;;;;17.27;16.48;;;9.80;99.90;;;;;;4977381;28;20619;-73
2023/04/24 01:56:44;;;;;;;17.40;16.40;;;9.70;99.90;;;;;;4992066;28;20034;-73
2023/04/24 01:59:12;;;;;;;16.80;16.00;;;9.70;99.90;;;;;;4978921;28;20336;-73
2023/04/24 02:01:39;;;;;;;16.65;15.85;;;9.70;99.90;;;;;;4992636;28;20405;-73
2023/04/24 02:04:07;;;;;;;17.30;16.27;;;9.60;99.90;;;;;;4977832;28;20479;-73
2023/04/24 02:06:35;;;;;;;16.58;15.70;;;9.60;99.90;;;;;;4990558;28;20536;-74
2023/04/24 02:09:03;;;;;;;16.08;15.38;;;9.50;99.90;;;;;;4996320;28;20104;-73
2023/04/24 02:11:29;;;;;;;15.93;15.13;;;9.50;99.90;;;;;;4978401;28;20426;-73
2023/04/24 02:13:57;;;;;;;15.50;14.80;;;9.40;99.90;;;;;;4982069;28;20056;-75
2023/04/24 02:16:23;;;;;;;15.32;14.63;;;9.40;99.90;;;;;;4998678;28;20042;-74
2023/04/24 02:18:50;;;;;;;15.20;14.50;;;9.40;99.90;;;;;;4996223;28;20041;-74
2023/04/24 02:21:17;;;;;;;16.00;15.30;;;9.40;99.90;;;;;;5000470;28;20140;-74
2023/04/24 02:23:44;;;;;;;15.60;14.88;;;9.50;99.90;;;;;;4980757;28;20141;-76
2023/04/24 02:26:12;;;;;;;15.13;14.43;;;9.50;99.90;;;;;;4980461;28;20124;-76
2023/04/24 02:28:39;;;;;;;15.48;14.77;;;9.50;99.90;;;;;;4996040;28;20503;-74
2023/04/24 02:31:06;;;;;;;15.50;14.80;;;9.50;99.90;;;;;;4997431;28;20049;-74
2023/04/24 02:33:33;;;;;;;15.20;14.30;;;9.50;99.90;;;;;;4996968;28;20502;-76
2023/04/24 02:36:00;;;;;;;15.10;14.40;;;9.50;99.90;;;;;;4995170;28;20262;-75
2023/04/24 02:38:26;;;;;;;15.23;14.52;;;9.50;99.90;;;;;;4997658;28;20056;-74
2023/04/24 02:40:53;;;;;;;14.73;13.93;;;9.50;99.90;;;;;;4995278;28;20107;-74
2023/04/24 02:43:20;;;;;;;14.95;14.02;;;9.50;99.90;;;;;;4996396;28;20046;-74
2023/04/24 02:45:47;;;;;;;14.93;14.23;;;9.50;99.90;;;;;;4998398;28;20038;-75
2023/04/24 02:48:13;;;;;;;14.30;13.60;;;9.50;99.90;;;;;;4997011;28;20137;-74
2023/04/24 02:50:40;;;;;;;14.52;13.82;;;9.50;99.90;;;;;;4995623;28;20416;-74
2023/04/24 02:53:07;;;;;;;14.23;13.55;;;9.50;99.90;;;;;;4996127;28;20092;-75
2023/04/24 02:55:34;;;;;;;14.35;13.55;;;9.50;99.90;;;;;;4994851;28;20042;-75
2023/04/24 02:58:00;;;;;;;13.95;13.25;;;9.50;99.90;;;;;;4995867;28;20038;-74
2023/04/24 03:00:27;;;;;;;13.88;13.18;;;9.50;99.90;;;;;;4979313;28;20045;-74
2023/04/24 03:02:54;;;;;;;13.43;12.82;;;9.50;99.90;;;;;;4997881;28;20053;-73
2023/04/24 03:05:21;;;;;;;13.65;12.95;;;9.50;99.90;;;;;;4996106;28;20033;-74
2023/04/24 03:07:48;;;;;;;13.82;13.13;;;9.60;99.90;;;;;;4999363;28;20041;-76
2023/04/24 03:10:15;;;;;;;13.23;12.63;;;9.60;99.90;;;;;;4996355;28;20041;-77
2023/04/24 03:12:41;;;;;;;13.40;12.60;;;9.60;99.90;;;;;;4993266;28;20541;-74
2023/04/24 03:15:09;;;;;;;13.77;12.90;;;9.60;99.90;;;;;;4997902;28;20049;-77
2023/04/24 03:17:36;;;;;;;13.45;12.80;;;9.60;99.90;;;;;;4994753;28;20050;-74
2023/04/24 03:20:05;;;;;;;13.70;13.05;;;9.60;99.90;;;;;;4998918;28;20038;-73
2023/04/24 03:22:33;;;;;;;13.70;13.00;;;9.70;99.90;;;;;;4997928;28;20124;-75
2023/04/24 03:25:01;;;;;;;13.63;13.02;;;9.70;99.90;;;;;;4995769;28;20041;-75
2023/04/24 03:27:28;;;;;;;14.40;13.38;;;9.70;99.90;;;;;;4994991;28;20518;-74
2023/04/24 03:30:00;;;;;;;14.07;13.38;;;9.70;99.90;;;;;;4997619;28;20804;-74
2023/04/24 03:32:47;;;;;;;13.30;12.60;;;9.70;99.90;;;;;;4996166;28;20638;-74
2023/04/24 03:35:21;;;;;;;13.13;12.40;;;9.80;99.90;;;;;;4993846;28;20038;-75
2023/04/24 03:37:48;;;;;;;12.77;12.07;;;9.70;99.90;;;;;;4980491;28;20055;-75
2023/04/24 03:40:33;;;;;;;;;;;9.70;99.90;;;;;;4992156;28;20052;-72
2023/04/24 03:43:02;;;;;;;12.02;11.30;;;9.70;99.90;;;;;;4994354;28;20323;-74
2023/04/24 03:45:29;;;;;;;11.57;11.00;;;9.70;99.90;;;;;;4994584;28;20037;-76
2023/04/24 03:47:56;;;;;;;11.43;10.82;;;9.60;99.90;;;;;;4992660;28;20042;-73
2023/04/24 03:50:23;;;;;;;11.35;10.85;;;9.60;99.90;;;;;;4994758;28;20046;-73
2023/04/24 03:52:50;;;;;;;11.68;11.07;;;9.70;99.90;;;;;;4996438;28;20526;-74
2023/04/24 03:55:28;;;;;;;11.13;10.23;;;9.60;99.90;;;;;;4981486;28;20034;-74
2023/04/24 03:57:54;;;;;;;10.60;9.98;;;9.60;99.90;;;;;;4980263;28;20081;-74
2023/04/24 04:00:22;;;;;;;10.50;10.00;;;9.60;99.90;;;;;;4995101;28;20038;-73
2023/04/24 04:03:01;;;;;;;10.05;9.55;;;9.60;99.90;;;;;;4993685;28;20042;-74
2023/04/24 04:05:28;;;;;;;10.00;9.50;;;9.60;99.90;;;;;;4995965;28;20045;-73
2023/04/24 04:07:56;;;;;;;10.57;9.98;;;9.60;99.90;;;;;;4994377;28;20092;-73
2023/04/24 04:10:23;;;;;;;10.65;10.00;;;9.60;99.90;;;;;;4996014;28;20042;-74
2023/04/24 04:12:50;;;;;;;10.23;9.73;;;9.60;99.90;;;;;;4993954;28;20220;-74
2023/04/24 04:15:16;;;;;;;10.43;9.88;;;9.60;99.90;;;;;;4995974;28;20100;-74
2023/04/24 04:17:43;;;;;;;11.23;10.52;;;9.60;99.90;;;;;;4981020;28;20030;-74
2023/04/24 04:20:11;;;;;;;11.20;10.48;;;9.60;99.90;;;;;;4978545;28;20050;-74
2023/04/24 04:22:39;;;;;;;11.38;10.57;;;9.50;99.90;;;;;;4994390;28;20045;-73
2023/04/24 04:25:13;;;;;;;10.23;9.63;;;9.50;99.90;;;;;;4993556;28;20727;-74
2023/04/24 04:27:41;;;;;;;11.45;10.52;;;9.50;99.90;;;;;;4995287;28;20050;-76
2023/04/24 04:30:10;;;;;;;9.98;9.23;;;9.50;99.90;;;;;;4997624;28;20046;-75
2023/04/24 04:32:46;;;;;;;9.23;8.68;;;9.40;99.90;;;;;;4997475;28;20100;-75
2023/04/24 04:35:13;;;;;;;7.90;7.43;;;9.40;99.90;;;;;;4976747;28;20437;-75
2023/04/24 04:37:40;;;;;;;7.05;6.65;;;9.40;99.90;;;;;;4992053;28;20042;-75
2023/04/24 04:40:19;;;;;;;7.90;7.20;;;9.30;99.90;;;;;;4981543;28;20053;-75
2023/04/24 04:42:55;;;;;;;5.32;4.82;;;9.40;99.90;;;;;;4997926;28;20033;-76
2023/04/24 04:45:24;;;;;;;6.32;5.80;;;9.30;99.90;;;;;;5001534;28;20142;-76
2023/04/24 04:48:14;;;;;;;7.03;6.25;;;9.00;99.90;;;;;;4994052;28;20053;-76
2023/04/24 04:50:41;;;;;;;6.72;5.82;;;8.90;99.90;;;;;;4993809;28;20319;-76
2023/04/24 04:53:07;;;;;;;5.82;5.43;;;8.70;99.90;;;;;;4996415;28;20046;-75
2023/04/24 04:55:37;;;;;;;6.00;5.60;;;8.70;99.90;;;;;;4994674;28;20137;-76
2023/04/24 04:58:10;;;;;;;6.43;6.03;;;8.70;99.90;;;;;;4976017;28;20207;-76
2023/04/24 05:00:37;;;;;;;6.88;6.47;;;8.70;99.90;;;;;;4994019;28;20132;-76
2023/04/24 05:03:15;;;;;;;8.07;7.68;;;8.70;99.90;;;;;;4993093;28;20406;-76
2023/04/24 05:05:52;;;;;;;10.02;9.48;;;8.70;99.90;;;;;;4994601;28;20595;-76
2023/04/24 05:08:18;;;;;;;10.35;9.85;;;8.80;99.90;;;;;;5023409;23;20081;-78
2023/04/24 05:10:54;;;;;;;12.60;11.50;;;8.80;99.90;;;;;;4997093;28;20041;-78
2023/04/24 05:13:21;;;;;;;13.40;12.45;;;8.80;99.90;;;;;;5014911;28;20049;-79
2023/04/24 05:16:07;;;;;;;12.65;11.82;;;8.80;99.90;;;;;;5007245;28;20111;-78
2023/04/24 05:18:34;;;;;;;14.15;12.82;;;8.80;99.90;;;;;;4993401;28;20487;-79
2023/04/24 05:21:01;;;;;;;14.50;13.50;;;8.80;99.90;;;;;;4992604;28;20612;-79
2023/04/24 05:23:28;;;;;;;16.02;14.73;;;8.80;99.90;;;;;;5006080;28;20046;-78
2023/04/24 05:25:56;;;;;;;17.35;16.15;;;8.80;99.90;;;;;;4990480;28;20041;-78
2023/04/24 05:28:23;;;;;;;17.92;16.83;;;8.80;99.90;;;;;;5020499;28;20140;-78
2023/04/24 05:31:02;;;;;;;19.35;17.75;;;8.80;99.90;;;;;;4998495;28;20041;-77
2023/04/24 05:33:29;;;;;;;16.75;15.52;;;8.80;99.90;;;;;;4995361;28;20045;-79
2023/04/24 05:35:56;;;;;;;17.90;16.50;;;8.80;99.90;;;;;;4997176;28;20129;-79
2023/04/24 05:38:23;;;;;;;17.67;16.02;;;8.80;99.90;;;;;;5010488;28;20426;-80
2023/04/24 05:40:50;;;;;;;20.83;19.48;;;8.80;99.90;;;;;;5008255;28;20345;-78
2023/04/24 05:43:16;;;;;;;22.63;20.92;;;8.70;99.90;;;;;;5009874;28;20550;-77
2023/04/24 05:45:43;;;;;;;26.70;24.58;;;8.70;99.90;;;;;;5007212;28;20451;-78
2023/04/24 05:48:10;;;;;;;27.60;25.52;;;8.60;99.90;;;;;;4995247;28;20138;-79
2023/04/24 05:50:36;;;;;;;29.15;27.02;;;8.60;99.90;;;;;;5007723;28;20046;-78
2023/04/24 05:53:04;;;;;;;29.38;27.13;;;8.60;99.90;;;;;;5011231;28;20041;-78
2023/04/24 05:55:33;;;;;;;31.27;28.85;;;8.70;99.90;;;;;;5015289;28;20037;-77
2023/04/24 05:58:01;;;;;;;30.00;27.70;;;8.70;99.90;;;;;;4995994;28;20777;-79
2023/04/24 06:00:29;;;;;;;28.15;26.17;;;8.70;99.90;;;;;;5003797;28;20076;-77
2023/04/24 06:03:03;;;;;;;30.33;27.83;;;8.70;99.90;;;;;;5006476;28;20163;-78
2023/04/24 06:05:31;;;;;;;29.17;26.75;;;8.70;99.90;;;;;;5011710;28;20646;-77
2023/04/24 06:07:58;;;;;;;30.42;27.70;;;8.70;99.90;;;;;;5015335;28;20040;-79
2023/04/24 06:10:29;;;;;;;30.15;27.85;;;8.70;99.90;;;;;;5018799;28;20527;-78
2023/04/24 06:12:59;;;;;;;30.30;27.80;;;8.60;99.90;;;;;;5009267;28;20046;-78
2023/04/24 06:15:30;;;;;;;30.65;28.25;;;8.60;99.90;;;;;;4997957;28;20044;-78
2023/04/24 06:18:05;;;;;;;31.30;28.98;;;8.70;99.90;;;;;;5004384;28;20041;-79
2023/04/24 06:20:32;;;;;;;30.80;28.40;;;8.70;99.90;;;;;;5007218;28;20049;-76
2023/04/24 06:23:01;;;;;;;32.25;29.38;;;8.80;99.90;;;;;;5000603;28;20046;-77
2023/04/24 06:25:28;;;;;;;32.65;29.85;;;8.80;99.90;;;;;;5020353;28;20044;-77
2023/04/24 06:27:55;;;;;;;31.10;28.80;;;8.90;99.90;;;;;;5013709;28;20137;-79
2023/04/24 06:30:22;;;;;;;30.92;28.70;;;9.00;99.90;;;;;;5016493;28;20050;-79
2023/04/24 06:32:50;;;;;;;31.45;29.02;;;9.00;99.90;;;;;;5002439;28;20133;-78
2023/04/24 06:35:21;;;;;;;31.65;29.15;;;9.10;99.90;;;;;;5002158;28;20068;-80
2023/04/24 06:37:48;;;;;;;30.70;28.50;;;9.40;99.90;;;;;;5020766;28;20529;-78
2023/04/24 06:40:15;;;;;;;29.73;27.55;;;9.60;99.90;;;;;;5016458;28;20050;-78
2023/04/24 06:42:42;;;;;;;31.00;28.90;;;10.00;99.90;;;;;;5023203;28;20037;-79
2023/04/24 06:45:09;;;;;;;33.03;30.67;;;10.20;99.90;;;;;;5001774;28;20814;-79
2023/04/24 06:47:36;;;;;;;33.17;31.05;;;10.20;99.90;;;;;;4997537;28;20103;-79
2023/04/24 06:50:04;;;;;;;34.35;32.03;;;10.40;99.90;;;;;;5022382;28;20045;-79
2023/04/24 06:53:06;;;;;;;34.90;32.60;;;10.40;99.90;;;;;;5005177;28;20062;-78
2023/04/24 06:55:51;;;;;;;35.63;33.05;;;10.40;99.90;;;;;;4998986;28;20046;-79
2023/04/24 06:58:17;;;;;;;33.47;31.25;;;10.00;99.90;;;;;;5008500;28;20064;-78
2023/04/24 07:00:45;;;;;;;34.38;31.85;;;9.70;99.90;;;;;;5014480;28;20069;-78
2023/04/24 07:03:12;;;;;;;33.47;30.88;;;9.50;99.90;;;;;;4998074;28;20068;-78
2023/04/24 07:05:39;;;;;;;32.38;29.85;;;9.40;99.90;;;;;;5005946;28;20033;-79
2023/04/24 07:08:06;;;;;;;32.72;30.10;;;9.30;99.90;;;;;;4990109;28;20046;-79
2023/04/24 07:10:35;;;;;;;33.90;31.40;;;9.10;99.90;;;;;;5016215;28;20045;-78
2023/04/24 07:13:02;;;;;;;31.70;29.20;;;9.00;99.90;;;;;;4994853;28;20136;-78
2023/04/24 07:15:29;;;;;;;32.45;29.95;;;9.00;99.90;;;;;;5004517;28;20045;-79
2023/04/24 07:17:56;;;;;;;31.98;29.40;;;9.00;99.90;;;;;;4995489;28;20252;-78
2023/04/24 07:20:22;;;;;;;31.35;28.88;;;8.90;99.90;;;;;;4994598;28;20137;-79
2023/04/24 07:22:49;;;;;;;32.83;30.52;;;8.90;99.90;;;;;;5008207;28;20041;-78
2023/04/24 07:25:16;;;;;;;33.90;31.45;;;8.90;99.90;;;;;;5006832;28;20400;-79
2023/04/24 07:27:43;;;;;;;32.35;30.05;;;9.00;99.90;;;;;;5013506;28;20125;-79
2023/04/24 07:30:10;;;;;;;31.70;29.20;;;9.00;99.90;;;;;;5013860;28;20433;-79
2023/04/24 07:32:37;;;;;;;30.70;28.40;;;9.00;99.90;;;;;;4999874;28;20141;-80
2023/04/24 07:35:04;;;;;;;30.08;27.77;;;9.10;99.90;;;;;;5019641;28;20756;-78
2023/04/24 07:37:30;;;;;;;29.30;27.38;;;9.20;99.90;;;;;;4999968;28;20383;-78
2023/04/24 07:39:57;;;;;;;29.88;27.42;;;9.30;99.90;;;;;;5003512;28;20124;-77
2023/04/24 07:42:24;;;;;;;28.65;26.75;;;9.40;99.90;;;;;;4995297;28;20045;-77
2023/04/24 07:44:51;;;;;;;27.95;25.95;;;9.50;99.90;;;;;;5009818;28;20116;-78
2023/04/24 07:47:17;;;;;;;28.73;26.73;;;9.60;99.90;;;;;;5009909;28;20069;-78
2023/04/24 07:49:44;;;;;;;29.17;27.13;;;9.60;99.90;;;;;;5004649;28;20039;-79
2023/04/24 07:52:11;;;;;;;28.95;27.00;;;9.80;99.90;;;;;;5007279;28;20041;-79
2023/04/24 07:54:38;;;;;;;27.23;25.23;;;10.00;99.90;;;;;;5008340;28;20623;-76
2023/04/24 07:57:06;;;;;;;25.95;24.17;;;10.00;99.90;;;;;;5013283;28;20129;-78
2023/04/24 07:59:33;;;;;;;26.23;24.52;;;9.90;99.90;;;;;;5015861;28;20698;-78
2023/04/24 08:02:01;;;;;;;26.58;24.73;;;10.00;99.90;;;;;;5002895;28;20499;-77
2023/04/24 08:04:27;;;;;;;26.90;25.17;;;10.00;99.90;;;;;;5013688;28;20052;-77
2023/04/24 08:06:55;;;;;;;25.60;23.80;;;10.00;99.90;;;;;;5013703;28;20033;-78
2023/04/24 08:09:21;;;;;;;27.13;24.98;;;9.90;99.90;;;;;;5010073;28;20045;-77
2023/04/24 08:11:48;;;;;;;24.95;23.15;;;9.80;99.90;;;;;;5006487;28;20045;-78
2023/04/24 08:14:15;;;;;;;26.10;24.40;;;9.80;99.90;;;;;;5012276;28;20133;-78
2023/04/24 08:16:42;;;;;;;26.25;24.42;;;10.00;99.90;;;;;;5015073;28;20061;-77
2023/04/24 08:19:09;;;;;;;26.75;25.05;;;9.90;99.90;;;;;;5004408;28;20470;-78
2023/04/24 08:21:35;;;;;;;26.92;25.15;;;9.80;99.90;;;;;;5009665;28;20041;-77
2023/04/24 08:24:05;;;;;;;27.65;25.77;;;9.70;99.90;;;;;;5009993;28;20100;-77
2023/04/24 08:26:31;;;;;;;27.20;25.40;;;9.70;99.90;;;;;;5004877;28;20744;-77
2023/04/24 08:28:58;;;;;;;28.80;27.08;;;9.60;99.90;;;;;;5000814;28;20177;-77
2023/04/24 08:31:25;;;;;;;29.15;27.25;;;9.60;99.90;;;;;;5006270;28;20033;-77
2023/04/24 08:33:52;;;;;;;26.15;24.55;;;9.60;99.90;;;;;;5025314;28;20054;-77
2023/04/24 08:36:19;;;;;;;27.95;25.73;;;9.60;99.90;;;;;;4994236;28;20044;-77
2023/04/24 08:38:46;;;;;;;26.50;24.70;;;9.60;99.90;;;;;;5004441;28;20420;-77
2023/04/24 08:41:15;;;;;;;26.02;24.33;;;9.60;99.90;;;;;;5003422;28;20069;-77
2023/04/24 08:43:43;;;;;;;27.08;25.40;;;9.60;99.90;;;;;;5008813;28;20053;-76
2023/04/24 08:46:12;;;;;;;28.13;26.15;;;9.60;99.90;;;;;;4998353;28;20787;-75
2023/04/24 08:48:40;;;;;;;26.35;24.65;;;9.60;99.90;;;;;;4996179;28;20041;-75
2023/04/24 08:51:08;;;;;;;26.02;24.38;;;9.60;99.90;;;;;;5008553;28;20454;-75
2023/04/24 08:53:35;;;;;;;37.55;33.47;;;9.70;99.90;;;;;;5006156;28;20040;-77
2023/04/24 08:56:03;;;;;;;44.58;39.72;;;9.70;99.90;;;;;;5014504;28;20658;-76
2023/04/24 08:58:33;;;;;;;38.30;35.00;;;9.70;99.90;;;;;;5010846;28;20037;-76
2023/04/24 09:01:00;;;;;;;26.38;24.70;;;9.70;99.90;;;;;;5013258;28;20050;-77
2023/04/24 09:03:28;;;;;;;25.98;24.35;;;9.70;99.90;;;;;;5013115;28;20041;-77
2023/04/24 09:05:56;;;;;;;26.88;25.05;;;9.80;99.90;;;;;;5008735;28;20034;-77
2023/04/24 09:08:25;;;;;;;25.65;23.73;;;9.80;99.90;;;;;;5007555;28;20120;-76
2023/04/24 09:10:53;;;;;;;26.90;25.30;;;9.90;99.90;;;;;;5009374;28;20060;-77
2023/04/24 09:13:20;;;;;;;27.02;25.33;;;10.00;99.90;;;;;;5017753;28;20394;-77
2023/04/24 09:15:47;;;;;;;26.33;24.52;;;10.10;99.90;;;;;;5007228;28;20037;-78
2023/04/24 09:18:14;;;;;;;29.95;28.05;;;10.20;99.90;;;;;;4998993;28;20136;-77
2023/04/24 09:21:00;;;;;;;31.95;30.02;;;10.10;99.90;;;;;;5006594;28;20072;-77
2023/04/24 09:23:28;;;;;;;29.38;27.48;;;10.00;99.90;;;;;;5012336;28;20046;-77
2023/04/24 09:25:56;;;;;;;28.73;27.13;;;10.00;99.90;;;;;;5010713;28;20466;-76
2023/04/24 09:28:41;;;;;;;28.92;27.08;;;9.80;99.90;;;;;;5002671;28;20044;-76
2023/04/24 09:31:21;;;;;;;28.65;26.63;;;9.60;99.90;;;;;;5002447;28;20089;-77
2023/04/24 09:33:55;;;;;;;27.45;25.58;;;9.50;99.90;;;;;;5014916;28;20041;-77
2023/04/24 09:36:28;;;;;;;27.52;25.83;;;9.50;99.90;;;;;;5016011;28;20048;-77
2023/04/24 09:39:01;;;;;;;27.25;25.42;;;9.50;99.90;;;;;;5006809;28;20450;-76
2023/04/24 09:41:28;;;;;;;27.00;25.15;;;9.60;99.90;;;;;;5006987;28;20734;-76
2023/04/24 09:43:56;;;;;;;25.92;24.33;;;9.70;99.90;;;;;;5007724;28;20311;-77
2023/04/24 09:46:31;;;;;;;25.90;24.30;;;9.80;99.90;;;;;;5005967;28;20124;-76
2023/04/24 09:49:09;;;;;;;26.55;24.95;;;9.70;99.90;;;;;;5004476;28;20560;-77
2023/04/24 09:51:37;;;;;;;26.38;24.77;;;9.80;99.90;;;;;;5013010;28;20049;-77
2023/04/24 09:54:13;;;;;;;26.27;24.70;;;9.80;99.90;;;;;;5015171;28;20072;-76
2023/04/24 09:56:44;;;;;;;25.00;23.58;;;9.80;99.90;;;;;;5002984;28;20129;-76
2023/04/24 09:59:11;;;;;;;26.42;24.63;;;9.80;99.90;;;;;;5009428;28;20054;-77
2023/04/24 10:01:38;;;;;;;24.80;23.30;;;9.70;99.90;;;;;;5011379;28;20053;-77
2023/04/24 10:04:05;;;;;;;24.38;22.98;;;9.60;99.90;;;;;;5005368;28;20038;-77
2023/04/24 10:06:35;;;;;;;24.95;23.25;;;9.60;99.90;;;;;;5004807;28;20036;-76
2023/04/24 10:09:03;;;;;;;25.15;23.65;;;9.60;99.90;;;;;;5017491;28;20064;-77
2023/04/24 10:11:30;;;;;;;25.42;23.92;;;9.50;99.90;;;;;;5003392;28;20048;-76
2023/04/24 10:13:58;;;;;;;24.35;22.85;;;9.50;99.90;;;;;;5010322;28;20052;-76
2023/04/24 10:16:26;;;;;;;24.45;22.95;;;9.60;99.90;;;;;;5002224;28;20057;-76
2023/04/24 10:18:55;;;;;;;24.83;23.17;;;9.70;99.90;;;;;;5013552;28;20103;-76
2023/04/24 10:21:22;;;;;;;25.50;23.95;;;9.70;99.90;;;;;;5010831;28;20045;-76
2023/04/24 10:23:49;;;;;;;24.05;22.65;;;9.70;99.90;;;;;;5006305;28;20376;-76
2023/04/24 10:26:17;;;;;;;24.17;22.77;;;9.60;99.90;;;;;;5003980;28;20051;-76
2023/04/24 10:28:45;;;;;;;24.90;23.30;;;9.70;99.90;;;;;;5010066;28;20117;-76
2023/04/24 10:31:13;;;;;;;24.77;23.38;;;9.70;99.90;;;;;;5015037;28;20073;-77
2023/04/24 10:33:42;;;;;;;24.80;23.30;;;9.80;99.90;;;;;;5017801;28;20229;-77
2023/04/24 10:36:14;;;;;;;24.98;23.40;;;9.70;99.90;;;;;;5008628;28;20049;-76
2023/04/24 10:38:43;;;;;;;25.38;23.88;;;9.80;99.90;;;;;;5009999;28;20057;-76
2023/04/24 10:41:19;;;;;;;25.48;23.83;;;9.60;99.90;;;;;;5007988;28;20559;-76
2023/04/24 10:43:48;;;;;;;22.95;21.55;;;9.40;99.90;;;;;;5004410;28;20071;-76
2023/04/24 10:46:21;;;;;;;20.52;19.45;;;9.20;99.90;;;;;;4995360;28;20042;-77
2023/04/24 10:48:55;;;;;;;18.33;17.33;;;8.90;99.90;;;;;;5014073;28;20100;-77
2023/04/24 10:51:23;;;;;;;17.17;16.27;;;8.40;99.90;;;;;;5010581;28;20096;-76
2023/04/24 10:53:51;;;;;;;18.50;17.45;;;8.30;99.90;;;;;;5011757;28;20060;-76
2023/04/24 10:56:18;;;;;;;19.65;18.60;;;8.20;99.90;;;;;;5006335;28;20052;-76
2023/04/24 10:58:51;;;;;;;20.95;19.75;;;8.40;99.90;;;;;;5005319;28;20667;-76
2023/04/24 11:01:27;;;;;;;21.25;20.05;;;8.60;99.90;;;;;;5008260;28;20077;-75
2023/04/24 11:03:59;;;;;;;20.15;19.15;;;8.70;99.90;;;;;;4993811;28;20799;-76
2023/04/24 11:06:36;;;;;;;19.77;18.77;;;8.60;99.90;;;;;;4998593;28;20087;-76
2023/04/24 11:09:07;;;;;;;19.85;18.85;;;8.30;99.90;;;;;;5015667;28;20048;-76
2023/04/24 11:11:37;;;;;;;19.42;18.42;;;8.00;99.90;;;;;;5019406;28;20091;-76
2023/04/24 11:14:06;;;;;;;18.15;17.20;;;7.90;99.90;;;;;;5014405;28;20052;-76
2023/04/24 11:16:53;;;;;;;18.70;17.60;;;7.70;99.90;;;;;;5020321;28;20049;-77
2023/04/24 11:19:28;;;;;;;20.15;19.00;;;7.70;99.90;;;;;;5017977;28;20506;-76
2023/04/24 11:22:03;;;;;;;21.17;19.98;;;7.70;99.90;;;;;;5014072;28;20049;-76
2023/04/24 11:24:39;;;;;;;19.95;18.85;;;7.80;99.90;;;;;;5022127;28;20049;-75
2023/04/24 11:27:20;;;;;;;20.40;19.30;;;7.80;99.90;;;;;;5010907;28;20044;-76
2023/04/24 11:29:56;;;;;;;20.83;19.73;;;7.90;99.90;;;;;;5012608;28;20052;-77
2023/04/24 11:32:30;;;;;;;20.63;19.52;;;7.90;99.90;;;;;;5020796;28;20033;-77
2023/04/24 11:35:05;;;;;;;20.27;19.17;;;7.80;99.90;;;;;;5016805;28;20049;-77
2023/04/24 11:37:40;;;;;;;18.00;17.10;;;7.80;99.90;;;;;;4992467;28;20417;-76
2023/04/24 11:40:11;;;;;;;15.65;14.63;;;7.80;99.90;;;;;;5013385;28;20558;-75
2023/04/24 11:42:40;;;;;;;14.88;14.18;;;7.80;99.90;;;;;;5009364;28;20076;-77
2023/04/24 11:45:10;;;;;;;13.30;12.70;;;7.80;99.90;;;;;;5014440;28;20131;-76
2023/04/24 11:47:37;;;;;;;11.07;10.57;;;7.70;99.90;;;;;;4996958;28;20030;-79
2023/04/24 11:50:06;;;;;;;10.00;9.40;;;7.70;99.90;;;;;;5022429;28;20100;-77
2023/04/24 11:52:39;;;;;;;8.50;7.80;;;7.60;99.90;;;;;;5019109;28;20045;-76
2023/04/24 11:55:16;;;;;;;7.72;7.15;;;7.70;99.90;;;;;;5007935;28;20567;-78
2023/04/24 11:57:46;;;;;;;8.02;7.05;;;7.80;99.90;;;;;;5017679;28;20260;-79
2023/04/24 12:00:21;;;;;;;9.80;8.90;;;7.70;99.90;;;;;;5017363;28;20041;-78
2023/04/24 12:02:49;;;;;;;8.40;7.60;;;7.70;99.90;;;;;;5020028;28;20037;-80
2023/04/24 12:05:34;;;;;;;9.52;7.72;;;7.80;99.90;;;;;;5027464;28;20068;-80
2023/04/24 12:08:02;;;;;;;6.75;6.07;;;7.80;99.90;;;;;;5013369;28;20046;-79
2023/04/24 12:10:30;;;;;;;11.23;7.30;;;7.70;99.90;;;;;;5016128;28;20042;-80
2023/04/24 12:12:58;;;;;;;9.02;7.15;;;7.80;99.90;;;;;;5018852;28;20042;-78
2023/04/24 12:15:25;;;;;;;7.72;6.97;;;7.80;99.90;;;;;;5025354;28;20141;-79
2023/04/24 12:17:53;;;;;;;6.13;5.07;;;7.80;99.90;;;;;;5040640;28;20148;-79
2023/04/24 12:20:30;;;;;;;5.82;5.22;;;7.70;99.90;;;;;;5017628;28;20107;-78
2023/04/24 12:22:59;;;;;;;6.13;5.53;;;7.60;99.90;;;;;;5011208;28;20076;-80
2023/04/24 12:25:31;;;;;;;8.15;5.82;;;7.70;99.90;;;;;;5010775;28;20675;-80
2023/04/24 12:28:03;;;;;;;4.53;4.10;;;7.70;99.90;;;;;;4996461;28;20095;-78
2023/04/24 12:30:38;;;;;;;4.65;4.25;;;7.50;99.90;;;;;;5013218;28;20068;-79
2023/04/24 12:33:04;;;;;;;4.82;4.43;;;7.40;99.90;;;;;;5016935;28;20049;-79
2023/04/24 12:35:35;;;;;;;6.43;5.40;;;7.30;99.90;;;;;;5003011;28;20048;-79
2023/04/24 12:38:26;;;;;;;6.47;5.88;;;7.30;99.90;;;;;;5020060;28;20127;-79
2023/04/24 12:41:04;;;;;;;6.03;5.28;;;7.30;99.90;;;;;;5009562;28;20045;-80
2023/04/24 12:43:31;;;;;;;9.30;5.90;;;7.40;99.90;;;;;;5003324;28;20042;-80
2023/04/24 12:45:58;;;;;;;7.53;5.22;;;7.30;99.90;;;;;;5016748;28;20061;-80
2023/04/24 12:48:27;;;;;;;6.05;4.85;;;7.30;99.90;;;;;;5020391;28;20045;-81